LIH weather

Lihue Airport
Lihue, Hawaii, United States

Public forecast

Using degrees Fahrenheit for public forecast. Weather courtesy of forecast.io.

METAR (pilot weather report)

Retrieved 2019/04/21 04:53 UTC (51 minutes ago):

PHLI 210453Z 06014KT 10SM BKN019 BKN036 OVC050 24/20 A3015

TAF (pilot weather forecast)

Forecast is more than 12 hours old.

Retrieved 2019/04/20 00:42 UTC (1 day ago):

TAF PHLI 202339Z 2100/2124 07016KT P6SM VCSH SCT025 BKN035 FM210800 07014KT 6SM SHRA BKN025 BKN035 FM212000 07016KT P6SM SCT025 BKN035